createdAt,value
2018-12-11T00:00:02.354Z,19.88
2018-12-11T00:00:43.040Z,19.87
2018-12-11T00:01:23.840Z,19.86
2018-12-11T00:02:04.667Z,19.87
2018-12-11T00:02:45.590Z,19.77
2018-12-11T00:03:26.341Z,19.78
2018-12-11T00:04:07.068Z,19.86
2018-12-11T00:04:47.784Z,19.76
2018-12-11T00:05:28.658Z,19.69
2018-12-11T00:06:09.461Z,19.8
2018-12-11T00:06:50.317Z,19.8
2018-12-11T00:07:31.416Z,19.69
2018-12-11T00:08:12.136Z,19.65
2018-12-11T00:08:52.949Z,19.69
2018-12-11T00:09:33.789Z,19.77
2018-12-11T00:10:14.510Z,19.68
2018-12-11T00:10:55.212Z,19.66
2018-12-11T00:11:35.953Z,19.76
2018-12-11T00:12:16.762Z,19.63
2018-12-11T00:12:57.518Z,19.59
2018-12-11T00:13:38.322Z,19.69
2018-12-11T00:14:19.090Z,19.61
2018-12-11T00:14:59.786Z,19.59
2018-12-11T00:15:40.520Z,19.61
2018-12-11T00:16:21.414Z,19.61
2018-12-11T00:17:02.236Z,19.61
2018-12-11T00:17:44.141Z,19.58
2018-12-11T00:18:24.810Z,19.63
2018-12-11T00:19:05.627Z,19.56
2018-12-11T00:19:46.497Z,19.58
2018-12-11T00:20:27.556Z,19.65
2018-12-11T00:21:08.039Z,19.63
2018-12-11T00:21:48.811Z,19.61
2018-12-11T00:22:29.612Z,19.62
2018-12-11T00:23:10.382Z,19.65
2018-12-11T00:23:51.153Z,19.66
2018-12-11T00:24:31.852Z,19.62
2018-12-11T00:25:12.620Z,19.62
2018-12-11T00:25:53.345Z,19.59
2018-12-11T00:26:34.112Z,19.63
2018-12-11T00:27:14.911Z,19.66
2018-12-11T00:27:55.706Z,19.66
2018-12-11T00:28:36.543Z,19.65
2018-12-11T00:29:17.318Z,19.71
2018-12-11T00:29:58.064Z,19.61
2018-12-11T00:30:38.821Z,19.54
2018-12-11T00:31:19.580Z,19.65
2018-12-11T00:32:00.391Z,19.58
2018-12-11T00:32:41.206Z,19.63
2018-12-11T00:33:21.953Z,19.55
2018-12-11T00:34:02.734Z,19.63
2018-12-11T00:34:43.448Z,19.68
2018-12-11T00:35:24.312Z,19.66
2018-12-11T00:36:05.044Z,19.63
2018-12-11T00:36:45.780Z,19.58
2018-12-11T00:37:26.520Z,19.65
2018-12-11T00:38:07.300Z,19.54
2018-12-11T00:38:48.144Z,19.61
2018-12-11T00:39:28.943Z,19.58
2018-12-11T00:40:09.668Z,19.61
2018-12-11T00:40:50.464Z,19.51
2018-12-11T00:41:31.237Z,19.54
2018-12-11T00:42:12.073Z,19.51
2018-12-11T00:42:52.824Z,19.59
2018-12-11T00:43:33.590Z,19.59
2018-12-11T00:44:14.408Z,19.58
2018-12-11T00:44:55.141Z,19.59
2018-12-11T00:45:35.880Z,19.62
2018-12-11T00:46:16.603Z,19.59
2018-12-11T00:46:57.357Z,19.59
2018-12-11T00:47:38.257Z,19.59
2018-12-11T00:48:19.145Z,19.56
2018-12-11T00:48:59.872Z,19.55
2018-12-11T00:49:40.630Z,19.54
2018-12-11T00:50:21.346Z,19.59
2018-12-11T00:51:02.046Z,19.56
2018-12-11T00:51:42.823Z,19.65
2018-12-11T00:52:23.568Z,19.55
2018-12-11T00:53:04.277Z,19.54
2018-12-11T00:53:45.087Z,19.58
2018-12-11T00:54:25.884Z,19.56
2018-12-11T00:55:06.726Z,19.54
2018-12-11T00:55:47.466Z,19.54
2018-12-11T00:56:28.201Z,19.59
2018-12-11T00:57:09.014Z,19.59
2018-12-11T00:57:49.749Z,19.54
2018-12-11T00:58:30.448Z,19.59
2018-12-11T00:59:11.217Z,19.55
2018-12-11T00:59:51.950Z,19.61
2018-12-11T01:00:32.823Z,19.56
2018-12-11T01:01:13.571Z,19.5
2018-12-11T01:01:54.279Z,19.56
2018-12-11T01:02:35.112Z,19.56
2018-12-11T01:03:15.872Z,19.54
2018-12-11T01:03:56.667Z,19.56
2018-12-11T01:04:37.339Z,19.55
2018-12-11T01:05:18.075Z,19.55
2018-12-11T01:05:58.819Z,19.56
2018-12-11T01:06:39.642Z,19.54
2018-12-11T01:07:20.449Z,19.56
2018-12-11T01:08:01.286Z,19.43
2018-12-11T01:08:42.098Z,19.41
2018-12-11T01:09:22.824Z,19.54
2018-12-11T01:10:03.658Z,19.51
2018-12-11T01:10:44.409Z,19.5
2018-12-11T01:11:25.153Z,19.5
2018-12-11T01:12:05.895Z,19.5
2018-12-11T01:12:46.640Z,19.55
2018-12-11T01:13:27.493Z,19.46
2018-12-11T01:14:08.259Z,19.51
2018-12-11T01:14:49.061Z,19.54
2018-12-11T01:15:29.796Z,19.5
2018-12-11T01:16:10.507Z,19.54
2018-12-11T01:16:51.263Z,19.47
2018-12-11T01:17:32.035Z,19.54
2018-12-11T01:18:12.832Z,19.5
2018-12-11T01:18:53.565Z,19.58
2018-12-11T01:19:34.288Z,19.44
2018-12-11T01:20:15.098Z,19.5
2018-12-11T01:20:55.948Z,19.43
2018-12-11T01:21:36.678Z,19.54
2018-12-11T01:22:17.416Z,19.54
2018-12-11T01:22:58.148Z,19.55
2018-12-11T01:23:38.924Z,19.43
2018-12-11T01:24:19.756Z,19.54
2018-12-11T01:25:00.558Z,19.51
2018-12-11T01:25:41.427Z,19.54
2018-12-11T01:26:22.141Z,19.48
2018-12-11T01:27:02.935Z,19.54
2018-12-11T01:27:43.717Z,19.54
2018-12-11T01:28:24.513Z,19.55
2018-12-11T01:29:05.250Z,19.41
2018-12-11T01:29:45.980Z,19.5
2018-12-11T01:30:26.750Z,19.55
2018-12-11T01:31:07.567Z,19.43
2018-12-11T01:31:48.355Z,19.43
2018-12-11T01:32:29.059Z,19.54
2018-12-11T01:33:09.941Z,19.55
2018-12-11T01:33:50.790Z,19.5
2018-12-11T01:34:31.556Z,19.4
2018-12-11T01:35:12.282Z,19.51
2018-12-11T01:35:53.120Z,19.5
2018-12-11T01:36:33.956Z,19.48
2018-12-11T01:37:14.696Z,19.54
2018-12-11T01:37:55.412Z,19.54
2018-12-11T01:38:36.149Z,19.4
2018-12-11T01:39:16.980Z,19.51
2018-12-11T01:39:57.784Z,19.55
2018-12-11T01:40:38.574Z,19.47
2018-12-11T01:41:19.295Z,19.51
2018-12-11T01:41:59.975Z,19.51
2018-12-11T01:42:40.673Z,19.54
2018-12-11T01:43:21.451Z,19.44
2018-12-11T01:44:02.273Z,19.43
2018-12-11T01:44:43.004Z,19.5
2018-12-11T01:45:23.730Z,19.46
2018-12-11T01:46:04.539Z,19.55
2018-12-11T01:46:45.320Z,19.54
2018-12-11T01:47:26.123Z,19.44
2018-12-11T01:48:06.850Z,19.54
2018-12-11T01:48:47.596Z,19.5
2018-12-11T01:49:28.427Z,19.54
2018-12-11T01:50:09.263Z,19.5
2018-12-11T01:50:50.113Z,19.48
2018-12-11T01:51:30.950Z,19.46
2018-12-11T01:52:11.729Z,19.5
2018-12-11T01:52:52.425Z,19.56
2018-12-11T01:53:33.236Z,19.51
2018-12-11T01:54:14.002Z,19.44
2018-12-11T01:54:54.704Z,19.55
2018-12-11T01:55:35.443Z,19.58
2018-12-11T01:56:16.173Z,19.39
2018-12-11T01:56:57.036Z,19.5
2018-12-11T01:57:37.893Z,19.5
2018-12-11T01:58:18.691Z,19.4
2018-12-11T01:58:59.410Z,19.55
2018-12-11T01:59:40.138Z,19.43
2018-12-11T02:00:20.886Z,19.48
2018-12-11T02:01:01.773Z,19.51
2018-12-11T02:01:42.666Z,19.56
2018-12-11T02:02:23.429Z,19.48
2018-12-11T02:03:04.201Z,19.47
2018-12-11T02:03:44.991Z,19.56
2018-12-11T02:04:25.850Z,19.47
2018-12-11T02:05:06.584Z,19.5
2018-12-11T02:05:47.328Z,19.56
2018-12-11T02:06:28.124Z,19.51
2018-12-11T02:07:08.872Z,19.47
2018-12-11T02:07:49.600Z,19.5
2018-12-11T02:08:30.356Z,19.48
2018-12-11T02:09:11.087Z,19.56
2018-12-11T02:09:51.919Z,19.44
2018-12-11T02:10:32.674Z,19.46
2018-12-11T02:11:13.435Z,19.5
2018-12-11T02:11:54.201Z,19.41
2018-12-11T02:12:34.959Z,19.55
2018-12-11T02:13:15.766Z,19.44
2018-12-11T02:13:56.516Z,19.54
2018-12-11T02:14:37.229Z,19.51
2018-12-11T02:15:17.967Z,19.5
2018-12-11T02:15:58.784Z,19.5
2018-12-11T02:16:39.595Z,19.39
2018-12-11T02:17:20.417Z,19.5
2018-12-11T02:18:01.225Z,19.59
2018-12-11T02:18:42.036Z,19.59
2018-12-11T02:19:22.783Z,19.61
2018-12-11T02:20:03.536Z,19.43
2018-12-11T02:20:44.285Z,19.59
2018-12-11T02:21:25.022Z,19.56
2018-12-11T02:22:05.754Z,19.56
2018-12-11T02:22:46.556Z,19.61
2018-12-11T02:23:27.345Z,19.54
2018-12-11T02:24:08.117Z,19.5
2018-12-11T02:24:48.853Z,19.44
2018-12-11T02:25:29.561Z,19.61
2018-12-11T02:26:10.287Z,19.54
2018-12-11T02:26:51.078Z,19.51
2018-12-11T02:27:31.919Z,19.5
2018-12-11T02:28:12.714Z,19.44
2018-12-11T02:28:53.418Z,19.54
2018-12-11T02:29:34.237Z,19.5
2018-12-11T02:30:15.085Z,19.5
2018-12-11T02:30:55.904Z,19.48
2018-12-11T02:31:36.617Z,19.54
2018-12-11T02:32:17.334Z,19.39
2018-12-11T02:32:58.067Z,19.51
2018-12-11T02:33:38.862Z,19.47
2018-12-11T02:34:19.606Z,19.55
2018-12-11T02:35:00.402Z,19.43
2018-12-11T02:35:41.169Z,19.54
2018-12-11T02:36:21.875Z,19.54
2018-12-11T02:37:02.719Z,19.5
2018-12-11T02:37:43.472Z,19.5
2018-12-11T02:38:24.226Z,19.55
2018-12-11T02:39:04.922Z,19.48
2018-12-11T02:39:45.625Z,19.55
2018-12-11T02:40:26.428Z,19.51
2018-12-11T02:41:07.207Z,19.54
2018-12-11T02:41:47.943Z,19.46
2018-12-11T02:42:28.786Z,19.47
2018-12-11T02:43:09.592Z,19.55
2018-12-11T02:43:50.337Z,19.47
2018-12-11T02:44:31.073Z,19.5
2018-12-11T02:45:11.914Z,19.44
2018-12-11T02:45:52.766Z,19.43
2018-12-11T02:46:33.482Z,19.54
2018-12-11T02:47:14.221Z,19.46
2018-12-11T02:47:54.923Z,19.54
2018-12-11T02:48:35.685Z,19.39
2018-12-11T02:49:16.441Z,19.54
2018-12-11T02:49:57.251Z,19.44
2018-12-11T02:50:38.037Z,19.5
2018-12-11T02:51:18.731Z,19.46
2018-12-11T02:51:59.498Z,19.41
2018-12-11T02:52:40.231Z,19.47
2018-12-11T02:53:21.057Z,19.5
2018-12-11T02:54:01.882Z,19.5
2018-12-11T02:54:42.583Z,19.46
2018-12-11T02:55:23.354Z,19.43
2018-12-11T02:56:04.148Z,19.47
2018-12-11T02:56:44.948Z,19.44
2018-12-11T02:57:25.676Z,19.47
2018-12-11T02:58:06.386Z,19.44
2018-12-11T02:58:47.233Z,19.47
2018-12-11T02:59:28.002Z,19.44
2018-12-11T03:00:08.756Z,19.48
2018-12-11T03:00:49.452Z,19.47
2018-12-11T03:01:30.163Z,19.48
2018-12-11T03:02:11.013Z,19.41
2018-12-11T03:02:51.780Z,19.46
2018-12-11T03:03:32.477Z,19.55
2018-12-11T03:04:13.332Z,19.44
2018-12-11T03:04:54.108Z,19.4
2018-12-11T03:05:34.925Z,19.46
2018-12-11T03:06:15.680Z,19.44
2018-12-11T03:06:56.419Z,19.5
2018-12-11T03:07:37.138Z,19.59
2018-12-11T03:08:17.866Z,19.44
2018-12-11T03:08:58.679Z,19.48
2018-12-11T03:09:39.507Z,19.41
2018-12-11T03:10:20.307Z,19.43
2018-12-11T03:11:00.998Z,19.48
2018-12-11T03:11:41.777Z,19.44
2018-12-11T03:12:22.536Z,19.41
2018-12-11T03:13:03.255Z,19.44
2018-12-11T03:13:43.975Z,19.44
2018-12-11T03:14:24.690Z,19.43
2018-12-11T03:15:05.491Z,19.39
2018-12-11T03:15:46.203Z,19.41
2018-12-11T03:16:26.952Z,19.46
2018-12-11T03:17:07.710Z,19.46
2018-12-11T03:17:48.507Z,19.43
2018-12-11T03:18:29.347Z,19.37
2018-12-11T03:19:10.105Z,19.46
2018-12-11T03:19:50.928Z,19.47
2018-12-11T03:20:31.689Z,19.4
2018-12-11T03:21:12.409Z,19.41
2018-12-11T03:21:53.131Z,19.43
2018-12-11T03:22:33.847Z,19.43
2018-12-11T03:23:14.592Z,19.4
2018-12-11T03:23:55.424Z,19.41
2018-12-11T03:24:36.230Z,19.4
2018-12-11T03:25:17.040Z,19.46
2018-12-11T03:25:57.805Z,19.43
2018-12-11T03:26:38.563Z,19.44
2018-12-11T03:27:19.325Z,19.51
2018-12-11T03:28:00.153Z,19.44
2018-12-11T03:28:41.026Z,19.43
2018-12-11T03:29:21.763Z,19.47
2018-12-11T03:30:02.531Z,19.41
2018-12-11T03:30:43.334Z,19.44
2018-12-11T03:31:24.184Z,19.43
2018-12-11T03:32:04.929Z,19.43
2018-12-11T03:32:45.687Z,19.41
2018-12-11T03:33:26.359Z,19.44
2018-12-11T03:34:07.125Z,19.4
2018-12-11T03:34:47.957Z,19.39
2018-12-11T03:35:28.781Z,19.41
2018-12-11T03:36:09.612Z,19.43
2018-12-11T03:36:50.382Z,19.46
2018-12-11T03:37:31.144Z,19.4
2018-12-11T03:38:11.962Z,19.43
2018-12-11T03:38:52.695Z,19.39
2018-12-11T03:39:33.407Z,19.43
2018-12-11T03:40:14.095Z,19.37
2018-12-11T03:40:54.841Z,19.39
2018-12-11T03:41:35.658Z,19.43
2018-12-11T03:42:16.509Z,19.41
2018-12-11T03:42:57.339Z,19.39
2018-12-11T03:43:38.106Z,19.4
2018-12-11T03:44:18.910Z,19.41
2018-12-11T03:44:59.663Z,19.44
2018-12-11T03:45:40.510Z,19.4
2018-12-11T03:46:21.253Z,19.44
2018-12-11T03:47:01.981Z,19.39
2018-12-11T03:47:42.841Z,19.43
2018-12-11T03:48:23.600Z,19.39
2018-12-11T03:49:04.422Z,19.4
2018-12-11T03:49:45.141Z,19.37
2018-12-11T03:50:25.844Z,19.4
2018-12-11T03:51:06.706Z,19.41
2018-12-11T03:51:47.411Z,19.4
2018-12-11T03:52:28.119Z,19.36
2018-12-11T03:53:08.828Z,19.37
2018-12-11T03:53:49.541Z,19.39
2018-12-11T03:54:30.353Z,19.39
2018-12-11T03:55:11.090Z,19.37
2018-12-11T03:55:51.831Z,19.39
2018-12-11T03:56:32.705Z,19.36
2018-12-11T03:57:14.371Z,19.41
2018-12-11T03:57:55.184Z,19.36
2018-12-11T03:58:35.883Z,19.39
2018-12-11T03:59:16.618Z,19.29
2018-12-11T03:59:57.328Z,19.33
2018-12-11T04:00:38.076Z,19.29
2018-12-11T04:01:18.857Z,19.37
2018-12-11T04:01:59.645Z,19.28
2018-12-11T04:02:40.424Z,19.37
2018-12-11T04:03:21.124Z,19.39
2018-12-11T04:04:01.943Z,19.28
2018-12-11T04:04:42.733Z,19.37
2018-12-11T04:05:23.451Z,19.29
2018-12-11T04:06:04.163Z,19.29
2018-12-11T04:06:44.900Z,19.32
2018-12-11T04:07:25.730Z,19.31
2018-12-11T04:08:06.572Z,19.28
2018-12-11T04:08:47.401Z,19.26
2018-12-11T04:09:28.135Z,19.32
2018-12-11T04:10:08.891Z,19.28
2018-12-11T04:10:49.623Z,19.26
2018-12-11T04:11:30.395Z,19.31
2018-12-11T04:12:11.184Z,19.32
2018-12-11T04:12:51.879Z,19.29
2018-12-11T04:13:32.677Z,19.29
2018-12-11T04:14:13.460Z,19.31
2018-12-11T04:14:54.231Z,19.32
2018-12-11T04:15:35.080Z,19.29
2018-12-11T04:16:15.813Z,19.32
2018-12-11T04:16:56.502Z,19.31
2018-12-11T04:17:37.225Z,19.29
2018-12-11T04:18:18.070Z,19.29
2018-12-11T04:18:58.857Z,19.32
2018-12-11T04:19:39.672Z,19.29
2018-12-11T04:20:20.370Z,19.26
2018-12-11T04:21:01.086Z,19.26
2018-12-11T04:21:41.896Z,19.28
2018-12-11T04:22:22.616Z,19.36
2018-12-11T04:23:03.354Z,19.31
2018-12-11T04:23:44.072Z,19.29
2018-12-11T04:24:24.823Z,19.29
2018-12-11T04:25:05.623Z,19.28
2018-12-11T04:25:46.329Z,19.32
2018-12-11T04:26:27.095Z,19.29
2018-12-11T04:27:07.895Z,19.28
2018-12-11T04:27:48.689Z,19.32
2018-12-11T04:28:29.515Z,19.26
2018-12-11T04:29:10.249Z,19.26
2018-12-11T04:29:50.978Z,19.26
2018-12-11T04:30:31.767Z,19.25
2018-12-11T04:31:12.500Z,19.29
2018-12-11T04:31:53.234Z,19.29
2018-12-11T04:32:33.980Z,19.26
2018-12-11T04:33:14.750Z,19.28
2018-12-11T04:33:55.573Z,19.25
2018-12-11T04:34:36.364Z,19.29
2018-12-11T04:35:17.154Z,19.28
2018-12-11T04:35:57.857Z,19.33
2018-12-11T04:36:38.558Z,19.29
2018-12-11T04:37:19.366Z,19.29
2018-12-11T04:38:00.188Z,19.29
2018-12-11T04:38:40.955Z,19.28
2018-12-11T04:39:21.623Z,19.21
2018-12-11T04:40:02.455Z,19.36
2018-12-11T04:40:43.254Z,19.29
2018-12-11T04:41:24.079Z,19.28
2018-12-11T04:42:04.902Z,19.23
2018-12-11T04:42:45.608Z,19.33
2018-12-11T04:43:26.320Z,19.25
2018-12-11T04:44:07.059Z,19.23
2018-12-11T04:44:47.916Z,19.25
2018-12-11T04:45:28.713Z,19.32
2018-12-11T04:46:09.469Z,19.29
2018-12-11T04:46:50.177Z,19.31
2018-12-11T04:47:30.952Z,19.19
2018-12-11T04:48:11.723Z,19.26
2018-12-11T04:48:52.400Z,19.23
2018-12-11T04:49:33.118Z,19.26
2018-12-11T04:50:13.831Z,19.26
2018-12-11T04:50:54.788Z,19.28
2018-12-11T04:51:35.574Z,19.26
2018-12-11T04:52:16.439Z,19.22
2018-12-11T04:52:57.176Z,19.26
2018-12-11T04:53:37.951Z,19.23
2018-12-11T04:54:18.664Z,19.23
2018-12-11T04:54:59.412Z,19.22
2018-12-11T04:55:40.232Z,19.29
2018-12-11T04:56:20.965Z,19.31
2018-12-11T04:57:01.731Z,19.26
2018-12-11T04:57:42.563Z,19.23
2018-12-11T04:58:23.346Z,19.23
2018-12-11T04:59:04.190Z,19.31
2018-12-11T04:59:44.936Z,19.26
2018-12-11T05:00:25.704Z,19.28
2018-12-11T05:01:06.513Z,19.25
2018-12-11T05:01:47.255Z,19.29
2018-12-11T05:02:27.963Z,19.26
2018-12-11T05:03:08.713Z,19.19
2018-12-11T05:03:49.481Z,19.25
2018-12-11T05:04:30.279Z,19.21
2018-12-11T05:05:11.024Z,19.21
2018-12-11T05:05:51.784Z,19.23
2018-12-11T05:06:33.475Z,19.18
2018-12-11T05:07:13.410Z,19.25
2018-12-11T05:07:54.262Z,19.19
2018-12-11T05:08:34.953Z,19.21
2018-12-11T05:09:15.668Z,19.19
2018-12-11T05:09:56.484Z,19.18
2018-12-11T05:10:37.363Z,19.18
2018-12-11T05:11:18.135Z,19.23
2018-12-11T05:11:58.963Z,19.22
2018-12-11T05:12:39.713Z,19.21
2018-12-11T05:13:20.474Z,19.22
2018-12-11T05:14:01.273Z,19.18
2018-12-11T05:14:41.980Z,19.18
2018-12-11T05:15:22.668Z,19.18
2018-12-11T05:16:03.352Z,19.16
2018-12-11T05:16:44.107Z,19.18
2018-12-11T05:17:24.888Z,19.16
2018-12-11T05:18:05.622Z,19.19
2018-12-11T05:18:46.384Z,19.23
2018-12-11T05:19:27.204Z,19.18
2018-12-11T05:20:07.997Z,19.19
2018-12-11T05:20:48.778Z,19.16
2018-12-11T05:21:29.511Z,19.22
2018-12-11T05:22:10.309Z,19.18
2018-12-11T05:22:51.154Z,19.21
2018-12-11T05:23:31.873Z,19.19
2018-12-11T05:24:12.581Z,19.18
2018-12-11T05:24:53.266Z,19.18
2018-12-11T05:25:34.057Z,19.14
2018-12-11T05:26:14.877Z,19.16
2018-12-11T05:26:55.661Z,19.19
2018-12-11T05:27:36.525Z,19.18
2018-12-11T05:28:17.245Z,19.14
2018-12-11T05:28:58.020Z,19.21
2018-12-11T05:29:38.761Z,19.18
2018-12-11T05:30:19.579Z,19.18
2018-12-11T05:31:00.305Z,19.28
2018-12-11T05:31:41.025Z,19.14
2018-12-11T05:32:21.804Z,19.19
2018-12-11T05:33:02.655Z,19.23
2018-12-11T05:33:43.524Z,19.16
2018-12-11T05:34:24.193Z,19.19
2018-12-11T05:35:04.987Z,19.14
2018-12-11T05:35:45.802Z,19.22
2018-12-11T05:36:26.560Z,19.26
2018-12-11T05:37:07.313Z,19.14
2018-12-11T05:37:48.053Z,19.14
2018-12-11T05:38:28.772Z,19.22
2018-12-11T05:39:09.566Z,19.19
2018-12-11T05:39:50.286Z,19.26
2018-12-11T05:40:31.029Z,19.19
2018-12-11T05:41:11.888Z,19.16
2018-12-11T05:41:52.687Z,19.16
2018-12-11T05:42:33.511Z,19.16
2018-12-11T05:43:14.268Z,19.1
2018-12-11T05:43:54.990Z,19.18
2018-12-11T05:44:35.780Z,19.13
2018-12-11T05:45:16.577Z,19.16
2018-12-11T05:45:57.399Z,19.13
2018-12-11T05:46:38.163Z,19.13
2018-12-11T05:47:18.876Z,19.16
2018-12-11T05:47:59.610Z,19.19
2018-12-11T05:48:40.379Z,19.13
2018-12-11T05:49:21.180Z,19.18
2018-12-11T05:50:01.924Z,19.21
2018-12-11T05:50:42.657Z,19.21
2018-12-11T05:51:23.466Z,19.19
2018-12-11T05:52:04.262Z,19.14
2018-12-11T05:52:45.022Z,19.21
2018-12-11T05:53:25.854Z,19.18
2018-12-11T05:54:06.581Z,19.21
2018-12-11T05:54:47.272Z,19.07
2018-12-11T05:55:27.991Z,19.16
2018-12-11T05:56:08.748Z,19.16
2018-12-11T05:56:49.596Z,19.16
2018-12-11T05:57:30.310Z,19.1
2018-12-11T05:58:11.077Z,19.18
2018-12-11T05:58:51.935Z,19.18
2018-12-11T05:59:32.729Z,19.14
2018-12-11T06:00:13.549Z,19.1
2018-12-11T06:00:54.275Z,19.1
2018-12-11T06:01:34.993Z,19.14
2018-12-11T06:02:15.775Z,19.06
2018-12-11T06:02:56.567Z,19.11
2018-12-11T06:03:37.350Z,19.14
2018-12-11T06:04:18.159Z,19.13
2018-12-11T06:04:58.865Z,19.14
2018-12-11T06:05:39.642Z,19.11
2018-12-11T06:06:20.448Z,19.07
2018-12-11T06:07:01.133Z,19.16
2018-12-11T06:07:41.855Z,19.16
2018-12-11T06:08:22.609Z,19.1
2018-12-11T06:09:03.423Z,19.16
2018-12-11T06:09:44.236Z,19.13
2018-12-11T06:10:24.975Z,19.13
2018-12-11T06:11:05.753Z,19.13
2018-12-11T06:11:46.646Z,19.1
2018-12-11T06:12:27.410Z,19.08
2018-12-11T06:13:08.235Z,19
2018-12-11T06:13:48.928Z,19.1
2018-12-11T06:14:29.734Z,19.04
2018-12-11T06:15:10.506Z,19.02
2018-12-11T06:15:51.214Z,19.07
2018-12-11T06:16:31.973Z,19.07
2018-12-11T06:17:12.743Z,19.06
2018-12-11T06:17:53.534Z,19.11
2018-12-11T06:18:34.391Z,19.08
2018-12-11T06:19:15.219Z,19.08
2018-12-11T06:19:55.961Z,19.07
2018-12-11T06:20:36.644Z,19.02
2018-12-11T06:21:17.350Z,19.04
2018-12-11T06:21:58.117Z,19.1
2018-12-11T06:22:38.960Z,19.06
2018-12-11T06:23:19.661Z,19
2018-12-11T06:24:00.392Z,19.02
2018-12-11T06:24:41.269Z,19
2018-12-11T06:25:22.066Z,19
2018-12-11T06:26:02.864Z,19.07
2018-12-11T06:26:43.592Z,19.08
2018-12-11T06:27:24.324Z,19.07
2018-12-11T06:28:05.032Z,19.04
2018-12-11T06:28:45.861Z,19.07
2018-12-11T06:29:26.621Z,18.92
2018-12-11T06:30:07.401Z,18.98
2018-12-11T06:30:48.142Z,19.02
2018-12-11T06:31:28.902Z,18.9
2018-12-11T06:32:09.736Z,19.02
2018-12-11T06:32:50.496Z,18.99
2018-12-11T06:33:31.228Z,18.95
2018-12-11T06:34:11.971Z,19
2018-12-11T06:34:52.692Z,19.04
2018-12-11T06:35:33.486Z,19
2018-12-11T06:36:14.278Z,19
2018-12-11T06:36:55.044Z,19.02
2018-12-11T06:37:35.780Z,19.04
2018-12-11T06:38:16.497Z,19.02
2018-12-11T06:38:57.220Z,19.04
2018-12-11T06:39:38.067Z,18.9
2018-12-11T06:40:18.786Z,19.04
2018-12-11T06:40:59.488Z,19
2018-12-11T06:41:40.281Z,18.99
2018-12-11T06:42:21.031Z,19
2018-12-11T06:43:01.886Z,18.94
2018-12-11T06:43:42.615Z,18.98
2018-12-11T06:44:23.329Z,18.94
2018-12-11T06:45:04.182Z,18.98
2018-12-11T06:45:44.942Z,18.98
2018-12-11T06:46:25.682Z,19
2018-12-11T06:47:06.415Z,18.95
2018-12-11T06:47:47.161Z,19
2018-12-11T06:48:27.992Z,18.9
2018-12-11T06:49:08.710Z,19.07
2018-12-11T06:49:49.461Z,18.94
2018-12-11T06:50:30.316Z,18.91
2018-12-11T06:51:11.108Z,18.95
2018-12-11T06:51:51.939Z,18.98
2018-12-11T06:52:32.652Z,18.98
2018-12-11T06:53:13.364Z,19
2018-12-11T06:53:54.081Z,18.94
2018-12-11T06:54:34.886Z,18.92
2018-12-11T06:55:15.666Z,19.04
2018-12-11T06:55:56.474Z,18.94
2018-12-11T06:56:37.246Z,18.99
2018-12-11T06:57:17.952Z,18.92
2018-12-11T06:57:58.753Z,19
2018-12-11T06:58:40.791Z,18.92
2018-12-11T06:59:20.259Z,18.92
2018-12-11T07:00:00.965Z,18.9
2018-12-11T07:00:41.668Z,19
2018-12-11T07:01:22.481Z,18.88
2018-12-11T07:02:03.248Z,19
2018-12-11T07:02:44.060Z,18.98
2018-12-11T07:03:24.792Z,18.91
2018-12-11T07:04:05.525Z,18.94
2018-12-11T07:04:46.239Z,18.91
2018-12-11T07:05:27.031Z,18.91
2018-12-11T07:06:07.803Z,18.92
2018-12-11T07:06:48.530Z,18.92
2018-12-11T07:07:29.288Z,18.94
2018-12-11T07:08:10.102Z,18.99
2018-12-11T07:08:50.938Z,18.95
2018-12-11T07:09:31.687Z,18.91
2018-12-11T07:10:12.414Z,18.91
2018-12-11T07:10:53.144Z,18.99
2018-12-11T07:11:33.917Z,18.94
2018-12-11T07:12:14.756Z,18.94
2018-12-11T07:12:55.557Z,18.94
2018-12-11T07:13:36.320Z,19
2018-12-11T07:14:17.047Z,18.94
2018-12-11T07:14:57.787Z,19.04
2018-12-11T07:15:38.637Z,19.04
2018-12-11T07:16:19.410Z,19.04
2018-12-11T07:17:00.082Z,19.02
2018-12-11T07:17:40.832Z,19
2018-12-11T07:18:25.890Z,19.06
2018-12-11T07:19:02.404Z,18.95
2018-12-11T07:19:43.130Z,19.07
2018-12-11T07:20:23.938Z,19.08
2018-12-11T07:21:04.739Z,19.07
2018-12-11T07:21:45.508Z,19.06
2018-12-11T07:22:26.326Z,19.07
2018-12-11T07:23:07.052Z,18.98
2018-12-11T07:23:47.834Z,19.04
2018-12-11T07:24:28.653Z,19.04
2018-12-11T07:25:09.376Z,19.11
2018-12-11T07:25:50.082Z,19.06
2018-12-11T07:26:30.772Z,19.08
2018-12-11T07:27:11.551Z,19.04
2018-12-11T07:27:52.352Z,19.14
2018-12-11T07:28:33.166Z,19.04
2018-12-11T07:29:13.906Z,19.08
2018-12-11T07:29:54.631Z,19.08
2018-12-11T07:30:35.405Z,19.08
2018-12-11T07:31:16.228Z,19.02
2018-12-11T07:31:57.019Z,19.11
2018-12-11T07:32:37.754Z,19.11
2018-12-11T07:33:19.434Z,19.02
2018-12-11T07:33:59.243Z,19.11
2018-12-11T07:34:40.035Z,19.11
2018-12-11T07:35:20.871Z,19.1
2018-12-11T07:36:01.635Z,19.08
2018-12-11T07:36:42.398Z,19.16
2018-12-11T07:37:23.181Z,19.08
2018-12-11T07:38:03.903Z,19.08
2018-12-11T07:38:44.647Z,19
2018-12-11T07:39:25.377Z,19.06
2018-12-11T07:40:06.180Z,19.06
2018-12-11T07:40:46.972Z,19.14
2018-12-11T07:41:27.813Z,19.13
2018-12-11T07:42:08.562Z,19.11
2018-12-11T07:42:49.345Z,19.16
2018-12-11T07:43:30.153Z,19.11
2018-12-11T07:44:10.928Z,19.18
2018-12-11T07:44:51.667Z,19.18
2018-12-11T07:45:32.370Z,19.16
2018-12-11T07:46:13.046Z,19.16
2018-12-11T07:46:53.869Z,19.13
2018-12-11T07:47:34.695Z,19.19
2018-12-11T07:48:15.485Z,19.19
2018-12-11T07:48:56.189Z,19.21
2018-12-11T07:49:36.946Z,19.23
2018-12-11T07:50:17.761Z,19.16
2018-12-11T07:50:58.534Z,19.18
2018-12-11T07:51:39.238Z,19.18
2018-12-11T07:52:20.010Z,19.16
2018-12-11T07:53:00.808Z,19.18
2018-12-11T07:53:41.588Z,19.25
2018-12-11T07:54:22.292Z,19.18
2018-12-11T07:55:03.004Z,19.25
2018-12-11T07:55:43.811Z,19.14
2018-12-11T07:56:24.608Z,19.22
2018-12-11T07:57:05.401Z,19.16
2018-12-11T07:57:46.166Z,19.21
2018-12-11T07:58:26.906Z,19.19
2018-12-11T07:59:07.694Z,19.18
2018-12-11T07:59:48.419Z,19.19
2018-12-11T08:00:29.129Z,19.22
2018-12-11T08:01:10.013Z,19.19
2018-12-11T08:01:50.899Z,19.21
2018-12-11T08:02:31.700Z,19.23
2018-12-11T08:03:12.481Z,19.13
2018-12-11T08:03:53.242Z,19.25
2018-12-11T08:04:34.022Z,19.19
2018-12-11T08:05:14.735Z,19.18
2018-12-11T08:05:55.445Z,19.13
2018-12-11T08:06:36.251Z,19.11
2018-12-11T08:07:17.035Z,19.04
2018-12-11T08:07:57.767Z,19.14
2018-12-11T08:08:38.557Z,19.11
2018-12-11T08:09:19.364Z,19.13
2018-12-11T08:10:00.108Z,19.11
2018-12-11T08:10:40.833Z,19.02
2018-12-11T08:11:21.588Z,18.99
2018-12-11T08:12:08.127Z,19.08
2018-12-11T08:12:43.189Z,19.13
2018-12-11T08:13:23.928Z,19.1
2018-12-11T08:14:04.730Z,19.08
2018-12-11T08:14:45.483Z,19.1
2018-12-11T08:15:26.231Z,19.11
2018-12-11T08:16:07.079Z,19.04
2018-12-11T08:16:47.859Z,19.1
2018-12-11T08:17:28.605Z,19.04
2018-12-11T08:18:09.320Z,19.07
2018-12-11T08:18:50.042Z,19.13
2018-12-11T08:19:30.858Z,19.13
2018-12-11T08:20:11.660Z,19.1
2018-12-11T08:20:52.491Z,19.13
2018-12-11T08:21:33.283Z,19.11
2018-12-11T08:22:14.013Z,19.02
2018-12-11T08:22:54.760Z,19.13
2018-12-11T08:23:35.611Z,19.13
2018-12-11T08:24:16.393Z,19.13
2018-12-11T08:24:57.158Z,19.13
2018-12-11T08:25:37.924Z,19.14
2018-12-11T08:26:18.720Z,19.11
2018-12-11T08:26:59.569Z,19.1
2018-12-11T08:27:40.347Z,19.07
2018-12-11T08:28:21.066Z,19.02
2018-12-11T08:29:01.894Z,19.13
2018-12-11T08:29:42.718Z,19.11
2018-12-11T08:30:23.422Z,19.14
2018-12-11T08:31:04.243Z,19.02
2018-12-11T08:31:45.035Z,19.02
2018-12-11T08:32:25.811Z,19.14
2018-12-11T08:33:06.548Z,19.14
2018-12-11T08:33:47.317Z,19.14
2018-12-11T08:34:28.077Z,19.11
2018-12-11T08:35:08.847Z,19.16
2018-12-11T08:35:49.672Z,19.14
2018-12-11T08:36:30.458Z,19.19
2018-12-11T08:37:11.154Z,19.18
2018-12-11T08:37:51.905Z,19.16
2018-12-11T08:38:32.666Z,19.14
2018-12-11T08:39:13.472Z,19.11
2018-12-11T08:39:54.305Z,19.18
2018-12-11T08:40:35.071Z,19.16
2018-12-11T08:41:15.779Z,19.16
2018-12-11T08:41:56.569Z,19.18
2018-12-11T08:42:37.320Z,19.21
2018-12-11T08:43:18.055Z,19.13
2018-12-11T08:43:58.774Z,19.16
2018-12-11T08:44:39.507Z,19.13
2018-12-11T08:45:20.276Z,19.13
2018-12-11T08:46:01.088Z,19.13
2018-12-11T08:46:41.857Z,19.14
2018-12-11T08:47:22.707Z,19.16